Berlin, Illinois
Current Conditions -  °F | °C
As of 9:52 PM on Sunday 23 Nov 2014 (Local Time) from KSPI Reporting Station
Light Rain Light Rain  
Wind Chill: 52°   Ceiling: 300
Heat Index: 52°   Visibility: 6mi
Dew Point: 50°   Wind: 6mph
Humidity: 93%   Direction: 230°SW
Pressure: 29.21"   Gusts: NA
Location:  39.7375°N, 89.904°W
Report Text: KSPI 240352Z AUTO 23005KT 6SM -RA BR OVC003 11/10 A2921 RMK AO2 SLP889 P0003 T01110100
Loading
Personal Weather Stations






























Interactive Weather Map New forecast layout! Learn more

10-Day Weather Forecast

Advertisements
Track Severe Weather on mobile